createdAt,value
2022-12-29T00:00:19.215Z,74.11
2022-12-29T00:02:46.433Z,74.63
2022-12-29T00:05:13.516Z,73.53
2022-12-29T00:07:40.793Z,73.85
2022-12-29T00:10:08.841Z,73.04
2022-12-29T00:12:54.339Z,72.83
2022-12-29T00:15:39.813Z,72.76
2022-12-29T00:18:08.336Z,72.12
2022-12-29T00:20:57.289Z,72.57
2022-12-29T00:23:43.518Z,73.15
2022-12-29T00:26:34.693Z,73.00
2022-12-29T00:29:20.188Z,73.22
2022-12-29T00:32:05.745Z,73.48
2022-12-29T00:34:51.295Z,73.25
2022-12-29T00:37:38.797Z,71.95
2022-12-29T00:40:24.911Z,73.77
2022-12-29T00:43:10.707Z,74.88
2022-12-29T00:45:37.610Z,74.71
2022-12-29T00:48:04.775Z,74.53
2022-12-29T00:50:32.064Z,74.61
2022-12-29T00:52:59.336Z,75.35
2022-12-29T00:55:26.227Z,76.33
2022-12-29T00:57:53.096Z,76.38
2022-12-29T01:00:20.291Z,76.87
2022-12-29T01:02:47.288Z,74.52
2022-12-29T01:05:14.329Z,74.57
2022-12-29T01:07:42.050Z,75.54
2022-12-29T01:10:12.284Z,75.22
2022-12-29T01:12:42.349Z,76.69
2022-12-29T01:15:12.183Z,76.92
2022-12-29T01:17:39.124Z,76.77
2022-12-29T01:20:07.413Z,75.92
2022-12-29T01:22:35.564Z,75.73
2022-12-29T01:25:07.834Z,75.87
2022-12-29T01:27:36.804Z,76.03
2022-12-29T01:30:04.457Z,77.00
2022-12-29T01:32:32.464Z,76.58
2022-12-29T01:34:59.969Z,75.66
2022-12-29T01:37:28.195Z,73.90
2022-12-29T01:39:55.323Z,76.33
2022-12-29T01:42:27.558Z,75.95
2022-12-29T01:44:59.472Z,76.67
2022-12-29T01:47:42.170Z,77.28
2022-12-29T01:50:19.283Z,78.07
2022-12-29T01:52:56.727Z,76.34
2022-12-29T01:55:24.763Z,75.30
2022-12-29T01:57:54.300Z,75.00
2022-12-29T02:00:21.351Z,76.39
2022-12-29T02:02:53.548Z,76.37
2022-12-29T02:05:30.329Z,76.40
2022-12-29T02:07:57.682Z,76.08
2022-12-29T02:10:28.023Z,73.95
2022-12-29T02:12:55.537Z,74.10
2022-12-29T02:15:45.811Z,74.25
2022-12-29T02:18:24.999Z,77.93
2022-12-29T02:21:19.833Z,76.51
2022-12-29T02:24:25.773Z,74.15
2022-12-29T02:27:46.683Z,76.15
2022-12-29T02:30:19.447Z,76.12
2022-12-29T02:33:01.251Z,75.79
2022-12-29T02:35:57.416Z,74.75
2022-12-29T02:38:51.765Z,73.55
2022-12-29T02:41:34.010Z,77.75
2022-12-29T02:44:05.447Z,77.52
2022-12-29T02:46:51.029Z,77.71
2022-12-29T02:49:28.935Z,76.05
2022-12-29T02:52:32.862Z,75.09
2022-12-29T02:55:00.594Z,75.25
2022-12-29T02:57:27.812Z,74.96
2022-12-29T02:59:59.763Z,75.09
2022-12-29T03:02:29.850Z,75.15
2022-12-29T03:05:24.274Z,76.51
2022-12-29T03:08:08.047Z,76.32
2022-12-29T03:10:57.111Z,75.68
2022-12-29T03:13:58.133Z,76.30
2022-12-29T03:16:48.357Z,74.62
2022-12-29T03:19:34.270Z,75.52
2022-12-29T03:22:28.583Z,75.97
2022-12-29T03:25:29.336Z,77.14
2022-12-29T03:28:12.681Z,74.49
2022-12-29T03:30:41.871Z,75.87
2022-12-29T03:33:16.048Z,75.61
2022-12-29T03:35:45.382Z,77.19
2022-12-29T03:38:29.021Z,76.72
2022-12-29T03:41:02.381Z,75.85
2022-12-29T03:43:30.768Z,76.42
2022-12-29T03:45:57.784Z,74.17
2022-12-29T03:48:25.689Z,78.11
2022-12-29T03:50:52.767Z,77.13
2022-12-29T03:53:19.722Z,76.06
2022-12-29T03:55:46.775Z,79.10
2022-12-29T03:58:13.939Z,78.61
2022-12-29T04:00:41.543Z,79.61
2022-12-29T04:03:08.644Z,82.79
2022-12-29T04:05:35.718Z,82.17
2022-12-29T04:08:02.883Z,80.62
2022-12-29T04:10:29.765Z,83.75
2022-12-29T04:12:56.750Z,84.53
2022-12-29T04:15:25.459Z,85.19
2022-12-29T04:17:52.413Z,85.92
2022-12-29T04:20:38.127Z,84.81
2022-12-29T04:23:07.615Z,85.29
2022-12-29T04:25:34.951Z,83.45
2022-12-29T04:28:01.956Z,81.27
2022-12-29T04:30:29.058Z,81.26
2022-12-29T04:32:56.020Z,79.09
2022-12-29T04:35:23.023Z,80.60
2022-12-29T04:37:49.983Z,79.29
2022-12-29T04:40:16.915Z,82.83
2022-12-29T04:42:43.885Z,82.37
2022-12-29T04:45:11.587Z,81.91
2022-12-29T04:47:38.720Z,82.71
2022-12-29T04:50:06.267Z,80.74
2022-12-29T04:52:33.247Z,83.17
2022-12-29T04:55:00.307Z,84.18
2022-12-29T04:57:28.162Z,83.42
2022-12-29T04:59:55.143Z,84.03
2022-12-29T05:02:22.766Z,83.68
2022-12-29T05:04:50.091Z,84.48
2022-12-29T05:07:17.060Z,82.29
2022-12-29T05:09:45.632Z,83.44
2022-12-29T05:12:12.572Z,85.59
2022-12-29T05:14:39.602Z,88.96
2022-12-29T05:17:06.530Z,89.96
2022-12-29T05:19:33.934Z,91.10
2022-12-29T05:22:00.855Z,90.41
2022-12-29T05:24:28.334Z,90.83
2022-12-29T05:26:55.221Z,90.03
2022-12-29T05:29:22.242Z,92.49
2022-12-29T05:31:49.185Z,89.98
2022-12-29T05:34:16.277Z,88.01
2022-12-29T05:36:43.179Z,86.75
2022-12-29T05:39:10.362Z,88.48
2022-12-29T05:41:37.506Z,88.19
2022-12-29T05:44:04.456Z,88.19
2022-12-29T05:46:31.504Z,87.47
2022-12-29T05:48:58.447Z,85.57
2022-12-29T05:51:25.725Z,85.25
2022-12-29T05:53:53.059Z,84.54
2022-12-29T05:56:21.286Z,84.61
2022-12-29T05:58:48.316Z,84.89
2022-12-29T06:01:15.364Z,81.42
2022-12-29T06:03:47.940Z,80.34
2022-12-29T06:06:15.637Z,78.60
2022-12-29T06:08:42.836Z,78.64
2022-12-29T06:11:10.219Z,77.98
2022-12-29T06:13:38.120Z,83.95
2022-12-29T06:16:06.192Z,84.54
2022-12-29T06:18:33.196Z,81.98
2022-12-29T06:21:04.977Z,82.88
2022-12-29T06:23:32.031Z,85.40
2022-12-29T06:25:58.939Z,90.63
2022-12-29T06:28:26.550Z,87.08
2022-12-29T06:30:53.555Z,87.39
2022-12-29T06:33:21.177Z,88.92
2022-12-29T06:35:48.370Z,90.16
2022-12-29T06:38:15.431Z,87.54
2022-12-29T06:40:44.367Z,86.51
2022-12-29T06:43:11.889Z,85.75
2022-12-29T06:45:41.645Z,84.03
2022-12-29T06:48:08.883Z,84.33
2022-12-29T06:50:41.082Z,83.66
2022-12-29T06:53:08.186Z,82.68
2022-12-29T06:55:36.467Z,85.74
2022-12-29T06:58:05.245Z,85.03
2022-12-29T07:00:34.449Z,85.26
2022-12-29T07:03:02.280Z,85.05
2022-12-29T07:05:33.728Z,84.00
2022-12-29T07:08:01.209Z,84.93
2022-12-29T07:10:28.536Z,85.21
2022-12-29T07:12:55.694Z,85.32
2022-12-29T07:15:22.814Z,83.18
2022-12-29T07:17:50.898Z,80.99
2022-12-29T07:20:23.200Z,78.18
2022-12-29T07:22:53.505Z,74.22
2022-12-29T07:25:20.447Z,72.79
2022-12-29T07:27:47.510Z,69.39
2022-12-29T07:30:14.735Z,68.38
2022-12-29T07:32:42.048Z,66.95
2022-12-29T07:35:09.842Z,66.33
2022-12-29T07:37:36.839Z,65.28
2022-12-29T07:40:05.213Z,69.04
2022-12-29T07:42:34.774Z,70.06
2022-12-29T07:45:02.757Z,75.06
2022-12-29T07:47:29.717Z,72.65
2022-12-29T07:49:56.621Z,74.96
2022-12-29T07:52:23.526Z,74.00
2022-12-29T07:54:50.558Z,75.47
2022-12-29T07:57:18.292Z,75.95
2022-12-29T07:59:45.338Z,75.69
2022-12-29T08:02:13.578Z,75.57
2022-12-29T08:04:40.662Z,76.45
2022-12-29T08:07:07.629Z,76.18
2022-12-29T08:09:34.639Z,77.61
2022-12-29T08:12:01.660Z,77.01
2022-12-29T08:14:28.719Z,78.01
2022-12-29T08:16:55.673Z,82.08
2022-12-29T08:19:22.589Z,82.21
2022-12-29T08:21:49.667Z,82.71
2022-12-29T08:24:16.704Z,81.82
2022-12-29T08:26:43.689Z,81.04
2022-12-29T08:29:10.736Z,81.47
2022-12-29T08:31:38.018Z,80.47
2022-12-29T08:34:05.349Z,79.81
2022-12-29T08:36:32.712Z,78.52
2022-12-29T08:38:59.817Z,80.21
2022-12-29T08:41:27.217Z,81.49
2022-12-29T08:43:54.289Z,80.14
2022-12-29T08:46:21.382Z,80.43
2022-12-29T08:48:48.789Z,79.41
2022-12-29T08:51:19.096Z,82.31
2022-12-29T08:53:48.695Z,80.99
2022-12-29T08:56:16.360Z,79.01
2022-12-29T08:58:52.448Z,78.20
2022-12-29T09:01:19.909Z,77.10
2022-12-29T09:06:40.238Z,75.92
2022-12-29T09:09:08.874Z,76.38
2022-12-29T09:11:36.091Z,77.67
2022-12-29T09:14:03.213Z,76.28
2022-12-29T09:16:30.559Z,76.49
2022-12-29T09:18:57.787Z,74.96
2022-12-29T09:21:24.798Z,75.03
2022-12-29T09:23:52.101Z,74.54
2022-12-29T09:26:19.016Z,74.65
2022-12-29T09:28:45.980Z,71.53
2022-12-29T09:31:13.528Z,72.15
2022-12-29T09:33:40.646Z,72.32
2022-12-29T09:36:08.468Z,71.42
2022-12-29T09:38:35.989Z,71.46
2022-12-29T09:41:28.088Z,71.08
2022-12-29T09:44:08.915Z,69.76
2022-12-29T09:46:47.504Z,71.44
2022-12-29T09:49:29.187Z,68.88
2022-12-29T09:52:02.751Z,69.97
2022-12-29T09:54:38.647Z,67.84
2022-12-29T09:57:13.856Z,68.39
2022-12-29T09:59:43.829Z,68.77
2022-12-29T10:02:34.509Z,70.63
2022-12-29T10:05:01.545Z,69.08
2022-12-29T10:07:54.596Z,65.76
2022-12-29T10:13:18.210Z,59.44
2022-12-29T10:16:00.123Z,59.72
2022-12-29T10:18:51.461Z,57.31
2022-12-29T10:21:51.890Z,62.64
2022-12-29T10:24:25.374Z,63.90
2022-12-29T10:26:53.382Z,61.21
2022-12-29T10:29:27.943Z,58.73
2022-12-29T10:31:58.161Z,59.54
2022-12-29T10:34:34.837Z,57.36
2022-12-29T10:37:07.351Z,56.82
2022-12-29T10:39:42.211Z,55.37
2022-12-29T10:42:21.567Z,54.58
2022-12-29T10:44:50.746Z,53.53
2022-12-29T10:47:27.699Z,52.34
2022-12-29T10:49:55.601Z,52.13
2022-12-29T10:52:24.959Z,51.62
2022-12-29T10:55:00.991Z,50.84
2022-12-29T10:57:34.097Z,51.49
2022-12-29T11:00:03.231Z,50.25
2022-12-29T11:02:51.874Z,49.96
2022-12-29T11:05:42.654Z,49.45
2022-12-29T11:08:19.122Z,49.30
2022-12-29T11:10:47.574Z,49.27
2022-12-29T11:13:30.916Z,50.40
2022-12-29T11:16:06.006Z,50.11
2022-12-29T11:18:43.842Z,49.61
2022-12-29T11:21:29.721Z,49.04
2022-12-29T11:24:06.331Z,49.11
2022-12-29T11:26:35.237Z,49.74
2022-12-29T11:29:10.066Z,48.01
2022-12-29T11:31:58.790Z,49.27
2022-12-29T11:34:36.955Z,51.13
2022-12-29T11:37:13.676Z,48.25
2022-12-29T11:40:06.006Z,49.33
2022-12-29T11:42:43.876Z,48.98
2022-12-29T11:45:36.481Z,50.22
2022-12-29T11:48:19.553Z,47.73
2022-12-29T11:50:53.247Z,47.39
2022-12-29T11:53:27.046Z,47.18
2022-12-29T11:56:02.262Z,46.56
2022-12-29T11:58:39.919Z,46.53
2022-12-29T12:01:36.230Z,47.96
2022-12-29T12:04:09.389Z,47.04
2022-12-29T12:06:47.432Z,45.68
2022-12-29T12:09:29.643Z,45.03
2022-12-29T12:11:57.985Z,45.16
2022-12-29T12:14:39.887Z,44.85
2022-12-29T12:17:22.336Z,44.10
2022-12-29T12:20:02.244Z,46.56
2022-12-29T12:22:39.663Z,44.97
2022-12-29T12:25:17.815Z,44.15
2022-12-29T12:28:30.492Z,44.68
2022-12-29T12:31:03.352Z,44.71
2022-12-29T12:33:42.727Z,44.55
2022-12-29T12:36:37.631Z,44.69
2022-12-29T12:39:20.876Z,45.41
2022-12-29T12:42:15.968Z,44.87
2022-12-29T12:44:49.437Z,45.62
2022-12-29T12:47:29.701Z,45.34
2022-12-29T12:50:26.307Z,45.92
2022-12-29T12:53:17.123Z,43.78
2022-12-29T12:55:52.715Z,43.02
2022-12-29T12:58:31.749Z,43.37
2022-12-29T13:01:11.566Z,42.87
2022-12-29T13:03:54.155Z,44.05
2022-12-29T13:06:33.350Z,42.26
2022-12-29T13:09:42.453Z,42.36
2022-12-29T13:12:36.949Z,42.30
2022-12-29T13:15:45.503Z,42.51
2022-12-29T13:18:43.259Z,43.23
2022-12-29T13:21:19.339Z,42.25
2022-12-29T13:23:46.223Z,42.43
2022-12-29T13:26:40.443Z,41.99
2022-12-29T13:29:29.244Z,41.92
2022-12-29T13:32:05.144Z,44.15
2022-12-29T13:34:43.545Z,43.25
2022-12-29T13:37:15.908Z,43.47
2022-12-29T13:39:49.256Z,43.46
2022-12-29T13:42:20.117Z,42.76
2022-12-29T13:44:54.015Z,42.20
2022-12-29T13:47:34.920Z,42.15
2022-12-29T13:50:05.006Z,42.53
2022-12-29T13:52:45.425Z,42.59
2022-12-29T13:55:44.314Z,42.28
2022-12-29T13:58:32.243Z,42.58
2022-12-29T14:01:09.723Z,42.70
2022-12-29T14:03:52.927Z,43.49
2022-12-29T14:06:20.056Z,43.02
2022-12-29T14:08:49.324Z,43.23
2022-12-29T14:11:24.131Z,43.44
2022-12-29T14:13:51.265Z,43.68
2022-12-29T14:16:31.717Z,44.39
2022-12-29T14:19:11.435Z,44.68
2022-12-29T14:21:39.099Z,44.68
2022-12-29T14:24:27.726Z,44.76
2022-12-29T14:26:54.923Z,44.99
2022-12-29T14:29:24.766Z,45.66
2022-12-29T14:31:53.327Z,45.45
2022-12-29T14:34:23.374Z,46.09
2022-12-29T14:37:03.562Z,46.22
2022-12-29T14:39:42.723Z,46.22
2022-12-29T14:42:13.672Z,47.73
2022-12-29T14:44:59.913Z,45.96
2022-12-29T14:47:35.127Z,45.94
2022-12-29T14:50:39.563Z,46.55
2022-12-29T14:53:07.990Z,48.09
2022-12-29T14:56:11.391Z,51.83
2022-12-29T14:58:53.275Z,51.33
2022-12-29T15:01:50.333Z,50.75
2022-12-29T15:04:26.377Z,53.35
2022-12-29T15:06:54.997Z,56.45
2022-12-29T15:09:39.201Z,54.86
2022-12-29T15:12:44.079Z,53.84
2022-12-29T15:15:23.792Z,56.64
2022-12-29T15:17:50.828Z,54.44
2022-12-29T15:20:17.899Z,57.23
2022-12-29T15:22:46.564Z,58.51
2022-12-29T15:25:17.424Z,57.46
2022-12-29T15:27:51.748Z,57.31
2022-12-29T15:30:20.084Z,58.86
2022-12-29T15:32:49.396Z,56.49
2022-12-29T15:35:38.596Z,55.17
2022-12-29T15:38:17.959Z,55.29
2022-12-29T15:40:46.216Z,56.89
2022-12-29T15:44:03.575Z,55.65
2022-12-29T15:46:34.288Z,58.27
2022-12-29T15:49:05.699Z,56.81
2022-12-29T15:51:38.609Z,58.21
2022-12-29T15:54:06.560Z,58.84
2022-12-29T15:56:34.488Z,58.59
2022-12-29T15:59:02.495Z,60.12
2022-12-29T16:01:33.004Z,58.19
2022-12-29T16:04:02.344Z,57.42
2022-12-29T16:06:46.024Z,60.42
2022-12-29T16:09:29.663Z,60.21
2022-12-29T16:12:01.045Z,63.26
2022-12-29T16:14:36.200Z,63.39
2022-12-29T16:17:07.943Z,62.13
2022-12-29T16:19:50.213Z,62.16
2022-12-29T16:22:28.855Z,61.67
2022-12-29T16:25:33.096Z,61.81
2022-12-29T16:28:02.009Z,60.76
2022-12-29T16:30:34.505Z,61.88
2022-12-29T16:33:06.725Z,61.67
2022-12-29T16:35:47.398Z,63.72
2022-12-29T16:38:18.042Z,62.91
2022-12-29T16:40:58.549Z,63.14
2022-12-29T16:43:34.518Z,62.54
2022-12-29T16:46:01.486Z,63.23
2022-12-29T16:48:34.010Z,65.61
2022-12-29T16:51:15.740Z,71.25
2022-12-29T16:53:50.636Z,69.35
2022-12-29T16:56:28.248Z,67.79
2022-12-29T16:59:09.028Z,71.44
2022-12-29T17:01:39.129Z,71.96
2022-12-29T17:04:10.008Z,68.78
2022-12-29T17:06:37.099Z,68.84
2022-12-29T17:09:06.565Z,69.05
2022-12-29T17:11:59.355Z,68.79
2022-12-29T17:14:50.764Z,68.96
2022-12-29T17:17:33.842Z,68.30
2022-12-29T17:20:24.724Z,67.34
2022-12-29T17:22:55.207Z,66.43
2022-12-29T17:25:28.694Z,65.46
2022-12-29T17:28:05.517Z,64.46
2022-12-29T17:30:36.443Z,63.87
2022-12-29T17:33:06.441Z,64.00
2022-12-29T17:35:33.475Z,69.01
2022-12-29T17:38:01.081Z,70.69
2022-12-29T17:40:32.490Z,67.90
2022-12-29T17:43:00.322Z,68.29
2022-12-29T17:45:32.410Z,71.79
2022-12-29T17:48:02.064Z,71.08
2022-12-29T17:50:31.366Z,71.18
2022-12-29T17:53:04.349Z,72.40
2022-12-29T17:55:37.612Z,75.46
2022-12-29T17:58:33.347Z,76.84
2022-12-29T18:01:02.650Z,79.84
2022-12-29T18:03:36.451Z,80.58
2022-12-29T18:06:06.865Z,85.33
2022-12-29T18:08:35.727Z,86.36
2022-12-29T18:11:02.926Z,84.17
2022-12-29T18:13:41.865Z,82.11
2022-12-29T18:16:12.900Z,84.61
2022-12-29T18:18:39.839Z,83.20
2022-12-29T18:21:07.253Z,85.16
2022-12-29T18:23:37.219Z,83.70
2022-12-29T18:26:28.061Z,85.38
2022-12-29T18:28:59.631Z,83.83
2022-12-29T18:31:29.139Z,81.56
2022-12-29T18:33:58.297Z,81.35
2022-12-29T18:36:26.097Z,79.50
2022-12-29T18:38:54.968Z,80.99
2022-12-29T18:41:30.032Z,80.60
2022-12-29T18:43:58.055Z,80.33
2022-12-29T18:46:25.043Z,79.79
2022-12-29T18:48:53.563Z,81.08
2022-12-29T18:51:23.091Z,80.60
2022-12-29T18:53:51.076Z,78.23
2022-12-29T18:56:18.193Z,76.39
2022-12-29T18:58:45.196Z,74.90
2022-12-29T19:01:28.348Z,74.23
2022-12-29T19:03:55.660Z,72.75
2022-12-29T19:06:23.246Z,80.23
2022-12-29T19:08:50.249Z,79.99
2022-12-29T19:11:18.031Z,77.81
2022-12-29T19:13:45.153Z,76.77
2022-12-29T19:16:21.235Z,75.60
2022-12-29T19:19:08.841Z,74.37
2022-12-29T19:21:37.343Z,73.47
2022-12-29T19:24:04.623Z,72.66
2022-12-29T19:26:36.278Z,73.08
2022-12-29T19:29:04.505Z,73.32
2022-12-29T19:31:31.720Z,75.53
2022-12-29T19:34:01.184Z,73.51
2022-12-29T19:36:29.489Z,71.91
2022-12-29T19:38:56.540Z,71.44
2022-12-29T19:41:24.081Z,70.74
2022-12-29T19:43:51.270Z,71.66
2022-12-29T19:46:19.706Z,72.41
2022-12-29T19:48:49.338Z,71.95
2022-12-29T19:51:17.521Z,71.03
2022-12-29T19:53:46.268Z,70.21
2022-12-29T19:56:13.977Z,69.50
2022-12-29T19:58:46.600Z,69.51
2022-12-29T20:01:20.938Z,69.68
2022-12-29T20:03:49.358Z,70.52
2022-12-29T20:06:16.868Z,69.69
2022-12-29T20:08:44.114Z,69.04
2022-12-29T20:11:17.454Z,68.72
2022-12-29T20:13:45.047Z,68.76
2022-12-29T20:16:15.000Z,68.64
2022-12-29T20:18:42.629Z,68.30
2022-12-29T20:21:16.792Z,68.33
2022-12-29T20:23:45.386Z,68.54
2022-12-29T20:26:22.340Z,69.83
2022-12-29T20:28:50.590Z,70.06
2022-12-29T20:31:23.654Z,69.35
2022-12-29T20:33:51.083Z,69.02
2022-12-29T20:36:22.472Z,69.59
2022-12-29T20:38:50.121Z,68.63
2022-12-29T20:41:18.019Z,69.88
2022-12-29T20:43:45.600Z,70.19
2022-12-29T20:46:19.563Z,70.37
2022-12-29T20:48:48.925Z,70.50
2022-12-29T20:51:15.971Z,71.24
2022-12-29T20:53:42.940Z,70.83
2022-12-29T20:56:19.369Z,74.45
2022-12-29T20:59:17.626Z,72.10
2022-12-29T21:01:34.005Z,71.37
2022-12-29T21:04:01.160Z,72.00
2022-12-29T21:06:28.232Z,75.40
2022-12-29T21:08:55.526Z,80.28
2022-12-29T21:11:22.825Z,77.36
2022-12-29T21:13:50.205Z,77.67
2022-12-29T21:16:21.427Z,76.46
2022-12-29T21:18:51.934Z,76.73
2022-12-29T21:21:26.346Z,78.95
2022-12-29T21:23:55.114Z,76.27
2022-12-29T21:26:24.400Z,75.76
2022-12-29T21:28:51.493Z,79.56
2022-12-29T21:31:30.878Z,82.98
2022-12-29T21:33:58.523Z,79.39
2022-12-29T21:36:25.910Z,81.52
2022-12-29T21:38:53.212Z,80.07
2022-12-29T21:41:20.687Z,83.40
2022-12-29T21:44:07.174Z,83.32
2022-12-29T21:46:35.881Z,82.27
2022-12-29T21:49:04.691Z,94.34
2022-12-29T21:51:50.453Z,100.00
2022-12-29T21:54:41.181Z,100.00
2022-12-29T21:57:08.357Z,99.89
2022-12-29T21:59:57.031Z,100.00
2022-12-29T22:02:45.389Z,100.00
2022-12-29T22:05:33.400Z,100.00
2022-12-29T22:08:21.045Z,99.37
2022-12-29T22:11:07.497Z,98.26
2022-12-29T22:13:39.577Z,95.76
2022-12-29T22:16:09.690Z,93.93
2022-12-29T22:18:37.615Z,90.82
2022-12-29T22:21:06.323Z,92.40
2022-12-29T22:23:33.380Z,91.27
2022-12-29T22:26:08.659Z,91.45
2022-12-29T22:28:40.148Z,92.64
2022-12-29T22:31:25.401Z,89.95
2022-12-29T22:34:11.351Z,88.84
2022-12-29T22:36:39.386Z,89.32
2022-12-29T22:39:06.278Z,87.42
2022-12-29T22:41:33.319Z,86.18
2022-12-29T22:44:00.406Z,88.20
2022-12-29T22:46:28.121Z,87.49
2022-12-29T22:48:57.130Z,87.88
2022-12-29T22:51:26.498Z,86.90
2022-12-29T22:53:53.710Z,86.04
2022-12-29T22:56:24.819Z,85.68
2022-12-29T22:58:51.836Z,90.05
2022-12-29T23:01:22.787Z,88.17
2022-12-29T23:03:50.132Z,87.27
2022-12-29T23:06:17.819Z,87.16
2022-12-29T23:08:45.323Z,89.28
2022-12-29T23:11:13.390Z,88.49
2022-12-29T23:13:41.450Z,88.10
2022-12-29T23:16:08.882Z,87.81
2022-12-29T23:18:36.336Z,87.08
2022-12-29T23:21:03.513Z,86.10
2022-12-29T23:23:49.899Z,86.47
2022-12-29T23:26:21.005Z,85.73
2022-12-29T23:28:48.943Z,85.14
2022-12-29T23:31:16.831Z,84.79
2022-12-29T23:33:44.279Z,84.05
2022-12-29T23:36:12.515Z,84.17
2022-12-29T23:38:39.569Z,83.51
2022-12-29T23:41:06.833Z,83.48
2022-12-29T23:43:34.244Z,82.98
2022-12-29T23:46:18.838Z,83.83
2022-12-29T23:48:46.333Z,82.96
2022-12-29T23:51:13.726Z,82.46
2022-12-29T23:53:42.416Z,82.95
2022-12-29T23:56:13.626Z,82.31
2022-12-29T23:58:40.535Z,82.02
